sensor_id;sensor_type;location;lat;lon;timestamp;pressure;altitude;pressure_sealevel;temperature;humidity
41624;BME280;27319;50.306;18.926;2023-04-08T00:04:00;98289.72;;;3.68;100.00
41624;BME280;27319;50.306;18.926;2023-04-08T00:08:00;98290.59;;;3.57;100.00
41624;BME280;27319;50.306;18.926;2023-04-08T00:12:01;98305.56;;;3.58;100.00
41624;BME280;27319;50.306;18.926;2023-04-08T00:16:02;98298.06;;;3.63;100.00
41624;BME280;27319;50.306;18.926;2023-04-08T00:20:03;98307.72;;;3.64;100.00
41624;BME280;27319;50.306;18.926;2023-04-08T00:24:04;98310.53;;;3.52;100.00
41624;BME280;27319;50.306;18.926;2023-04-08T00:28:05;98315.47;;;3.56;100.00
41624;BME280;27319;50.306;18.926;2023-04-08T00:32:05;98320.50;;;3.59;100.00
41624;BME280;27319;50.306;18.926;2023-04-08T00:36:06;98319.56;;;3.60;100.00
41624;BME280;27319;50.306;18.926;2023-04-08T00:40:08;98322.72;;;3.54;100.00
41624;BME280;27319;50.306;18.926;2023-04-08T00:44:08;98333.78;;;3.59;100.00
41624;BME280;27319;50.306;18.926;2023-04-08T00:48:09;98324.41;;;3.55;100.00
41624;BME280;27319;50.306;18.926;2023-04-08T00:52:10;98317.16;;;3.46;100.00
41624;BME280;27319;50.306;18.926;2023-04-08T00:56:11;98323.69;;;3.42;100.00
41624;BME280;27319;50.306;18.926;2023-04-08T01:00:08;98320.56;;;3.48;100.00
41624;BME280;27319;50.306;18.926;2023-04-08T01:03:16;98317.66;;;3.40;100.00
41624;BME280;27319;50.306;18.926;2023-04-08T01:07:17;98326.81;;;3.47;100.00
41624;BME280;27319;50.306;18.926;2023-04-08T01:11:17;98339.13;;;3.37;100.00
41624;BME280;27319;50.306;18.926;2023-04-08T01:15:18;98336.00;;;3.43;100.00
41624;BME280;27319;50.306;18.926;2023-04-08T01:19:32;98339.72;;;3.41;100.00
41624;BME280;27319;50.306;18.926;2023-04-08T01:23:39;98346.22;;;3.37;100.00
41624;BME280;27319;50.306;18.926;2023-04-08T01:27:38;98347.19;;;3.36;100.00
41624;BME280;27319;50.306;18.926;2023-04-08T01:31:39;98337.69;;;3.33;100.00
41624;BME280;27319;50.306;18.926;2023-04-08T01:35:39;98336.97;;;3.31;100.00
41624;BME280;27319;50.306;18.926;2023-04-08T01:39:40;98341.78;;;3.26;100.00
41624;BME280;27319;50.306;18.926;2023-04-08T01:43:41;98342.75;;;3.14;100.00
41624;BME280;27319;50.306;18.926;2023-04-08T01:47:43;98352.00;;;3.09;100.00
41624;BME280;27319;50.306;18.926;2023-04-08T01:51:43;98351.78;;;3.12;100.00
41624;BME280;27319;50.306;18.926;2023-04-08T01:55:44;98351.91;;;3.10;100.00
41624;BME280;27319;50.306;18.926;2023-04-08T01:59:44;98349.97;;;3.12;100.00
41624;BME280;27319;50.306;18.926;2023-04-08T02:03:29;98354.06;;;3.05;100.00
41624;BME280;27319;50.306;18.926;2023-04-08T02:07:29;98353.69;;;3.10;100.00
41624;BME280;27319;50.306;18.926;2023-04-08T02:11:30;98348.03;;;2.92;100.00
41624;BME280;27319;50.306;18.926;2023-04-08T02:15:35;98348.75;;;2.94;100.00
41624;BME280;27319;50.306;18.926;2023-04-08T02:19:38;98353.69;;;2.88;100.00
41624;BME280;27319;50.306;18.926;2023-04-08T02:23:37;98364.97;;;2.79;100.00
41624;BME280;27319;50.306;18.926;2023-04-08T02:27:36;98362.69;;;2.74;100.00
41624;BME280;27319;50.306;18.926;2023-04-08T02:31:37;98356.81;;;2.82;100.00
41624;BME280;27319;50.306;18.926;2023-04-08T02:35:38;98362.81;;;2.84;100.00
41624;BME280;27319;50.306;18.926;2023-04-08T02:39:39;98368.00;;;2.74;100.00
41624;BME280;27319;50.306;18.926;2023-04-08T02:43:40;98361.59;;;2.66;100.00
41624;BME280;27319;50.306;18.926;2023-04-08T02:47:40;98371.47;;;2.75;99.80
41624;BME280;27319;50.306;18.926;2023-04-08T02:51:41;98370.50;;;2.65;100.00
41624;BME280;27319;50.306;18.926;2023-04-08T02:55:42;98377.34;;;2.67;100.00
41624;BME280;27319;50.306;18.926;2023-04-08T02:59:43;98379.41;;;2.75;100.00
41624;BME280;27319;50.306;18.926;2023-04-08T03:03:08;98383.25;;;2.60;100.00
41624;BME280;27319;50.306;18.926;2023-04-08T03:06:09;98383.84;;;2.63;100.00
41624;BME280;27319;50.306;18.926;2023-04-08T03:09:29;98388.31;;;2.63;100.00
41624;BME280;27319;50.306;18.926;2023-04-08T03:13:31;98383.34;;;2.58;100.00
41624;BME280;27319;50.306;18.926;2023-04-08T03:17:31;98388.75;;;2.57;100.00
41624;BME280;27319;50.306;18.926;2023-04-08T03:21:32;98382.59;;;2.45;100.00
41624;BME280;27319;50.306;18.926;2023-04-08T03:25:33;98386.78;;;2.37;100.00
41624;BME280;27319;50.306;18.926;2023-04-08T03:29:34;98393.88;;;2.36;100.00
41624;BME280;27319;50.306;18.926;2023-04-08T03:33:35;98392.19;;;2.35;100.00
41624;BME280;27319;50.306;18.926;2023-04-08T03:37:36;98401.53;;;2.28;100.00
41624;BME280;27319;50.306;18.926;2023-04-08T03:41:36;98399.41;;;2.33;100.00
41624;BME280;27319;50.306;18.926;2023-04-08T03:45:37;98412.75;;;2.32;100.00
41624;BME280;27319;50.306;18.926;2023-04-08T03:49:38;98404.81;;;2.32;100.00
41624;BME280;27319;50.306;18.926;2023-04-08T03:53:39;98412.00;;;2.30;100.00
41624;BME280;27319;50.306;18.926;2023-04-08T03:57:15;98409.75;;;2.36;100.00
41624;BME280;27319;50.306;18.926;2023-04-08T04:00:56;98406.31;;;2.23;100.00
41624;BME280;27319;50.306;18.926;2023-04-08T04:04:16;98419.63;;;2.34;100.00
41624;BME280;27319;50.306;18.926;2023-04-08T04:08:17;98423.00;;;2.36;100.00
41624;BME280;27319;50.306;18.926;2023-04-08T04:12:18;98427.00;;;2.42;100.00
41624;BME280;27319;50.306;18.926;2023-04-08T04:16:19;98435.50;;;2.34;100.00
41624;BME280;27319;50.306;18.926;2023-04-08T04:20:20;98431.56;;;2.40;100.00
41624;BME280;27319;50.306;18.926;2023-04-08T04:24:21;98439.50;;;2.40;100.00
41624;BME280;27319;50.306;18.926;2023-04-08T04:28:21;98447.13;;;2.44;100.00
41624;BME280;27319;50.306;18.926;2023-04-08T04:32:22;98451.47;;;2.45;100.00
41624;BME280;27319;50.306;18.926;2023-04-08T04:36:23;98453.88;;;2.48;100.00
41624;BME280;27319;50.306;18.926;2023-04-08T04:40:24;98455.25;;;2.54;100.00
41624;BME280;27319;50.306;18.926;2023-04-08T04:44:25;98456.31;;;2.51;100.00
41624;BME280;27319;50.306;18.926;2023-04-08T04:48:26;98458.03;;;2.63;100.00
41624;BME280;27319;50.306;18.926;2023-04-08T04:52:27;98459.56;;;2.55;100.00
41624;BME280;27319;50.306;18.926;2023-04-08T04:56:28;98466.00;;;2.63;100.00
41624;BME280;27319;50.306;18.926;2023-04-08T05:00:09;98466.56;;;2.56;100.00
41624;BME280;27319;50.306;18.926;2023-04-08T05:03:30;98473.31;;;2.60;100.00
41624;BME280;27319;50.306;18.926;2023-04-08T05:07:30;98480.94;;;2.64;100.00
41624;BME280;27319;50.306;18.926;2023-04-08T05:11:31;98485.16;;;2.67;100.00
41624;BME280;27319;50.306;18.926;2023-04-08T05:15:32;98491.56;;;2.75;100.00
41624;BME280;27319;50.306;18.926;2023-04-08T05:19:33;98486.31;;;2.86;100.00
41624;BME280;27319;50.306;18.926;2023-04-08T05:23:34;98491.97;;;2.82;100.00
41624;BME280;27319;50.306;18.926;2023-04-08T05:27:35;98492.09;;;2.80;100.00
41624;BME280;27319;50.306;18.926;2023-04-08T05:31:36;98496.31;;;2.83;100.00
41624;BME280;27319;50.306;18.926;2023-04-08T05:35:36;98499.84;;;2.94;100.00
41624;BME280;27319;50.306;18.926;2023-04-08T05:39:37;98503.66;;;2.90;100.00
41624;BME280;27319;50.306;18.926;2023-04-08T05:43:38;98511.44;;;3.04;100.00
41624;BME280;27319;50.306;18.926;2023-04-08T05:47:39;98512.06;;;3.08;100.00
41624;BME280;27319;50.306;18.926;2023-04-08T05:51:40;98518.59;;;3.15;100.00
41624;BME280;27319;50.306;18.926;2023-04-08T05:55:41;98524.00;;;3.13;100.00
41624;BME280;27319;50.306;18.926;2023-04-08T05:59:42;98524.03;;;3.24;100.00
41624;BME280;27319;50.306;18.926;2023-04-08T06:03:10;98530.44;;;3.33;99.78
41624;BME280;27319;50.306;18.926;2023-04-08T06:06:31;98531.66;;;3.29;99.79
41624;BME280;27319;50.306;18.926;2023-04-08T06:10:32;98525.03;;;3.34;99.70
41624;BME280;27319;50.306;18.926;2023-04-08T06:14:33;98529.88;;;3.40;99.29
41624;BME280;27319;50.306;18.926;2023-04-08T06:18:34;98534.25;;;3.52;98.73
41624;BME280;27319;50.306;18.926;2023-04-08T06:22:35;98541.97;;;3.55;99.56
41624;BME280;27319;50.306;18.926;2023-04-08T06:26:35;98543.22;;;3.73;100.00
41624;BME280;27319;50.306;18.926;2023-04-08T06:30:36;98541.78;;;3.91;99.56
41624;BME280;27319;50.306;18.926;2023-04-08T06:34:37;98557.00;;;4.00;99.22
41624;BME280;27319;50.306;18.926;2023-04-08T06:38:22;98560.00;;;3.96;98.27
41624;BME280;27319;50.306;18.926;2023-04-08T06:42:22;98560.28;;;4.04;98.15
41624;BME280;27319;50.306;18.926;2023-04-08T06:46:23;98565.69;;;4.02;97.64
41624;BME280;27319;50.306;18.926;2023-04-08T06:50:24;98574.84;;;3.98;94.72
41624;BME280;27319;50.306;18.926;2023-04-08T06:54:25;98581.59;;;3.80;95.29
41624;BME280;27319;50.306;18.926;2023-04-08T06:58:26;98584.03;;;4.05;94.71
41624;BME280;27319;50.306;18.926;2023-04-08T07:02:27;98568.72;;;4.20;94.10
41624;BME280;27319;50.306;18.926;2023-04-08T07:06:28;98576.06;;;4.27;95.89
41624;BME280;27319;50.306;18.926;2023-04-08T07:10:29;98582.94;;;4.41;95.25
41624;BME280;27319;50.306;18.926;2023-04-08T07:14:29;98584.75;;;4.51;93.35
41624;BME280;27319;50.306;18.926;2023-04-08T07:18:30;98592.00;;;4.71;93.11
41624;BME280;27319;50.306;18.926;2023-04-08T07:22:05;98588.13;;;4.75;91.67
41624;BME280;27319;50.306;18.926;2023-04-08T07:26:06;98603.31;;;4.84;91.76
41624;BME280;27319;50.306;18.926;2023-04-08T07:30:07;98603.59;;;4.81;92.66
41624;BME280;27319;50.306;18.926;2023-04-08T07:34:08;98604.50;;;4.91;92.84
41624;BME280;27319;50.306;18.926;2023-04-08T07:38:09;98610.69;;;4.92;93.59
41624;BME280;27319;50.306;18.926;2023-04-08T07:42:09;98617.28;;;5.08;91.88
41624;BME280;27319;50.306;18.926;2023-04-08T07:46:10;98620.88;;;5.18;92.73
41624;BME280;27319;50.306;18.926;2023-04-08T07:50:11;98619.84;;;5.41;89.11
41624;BME280;27319;50.306;18.926;2023-04-08T07:53:52;98624.59;;;5.58;88.74
41624;BME280;27319;50.306;18.926;2023-04-08T07:57:13;98618.59;;;5.77;87.79
41624;BME280;27319;50.306;18.926;2023-04-08T08:01:22;98623.09;;;5.65;86.15
41624;BME280;27319;50.306;18.926;2023-04-08T08:05:14;98623.84;;;5.67;87.43
41624;BME280;27319;50.306;18.926;2023-04-08T08:09:15;98626.84;;;5.94;85.54
41624;BME280;27319;50.306;18.926;2023-04-08T08:13:16;98625.81;;;6.06;85.17
41624;BME280;27319;50.306;18.926;2023-04-08T08:17:17;98633.41;;;6.31;83.52
41624;BME280;27319;50.306;18.926;2023-04-08T08:21:18;98628.78;;;6.33;84.67
41624;BME280;27319;50.306;18.926;2023-04-08T08:25:19;98629.38;;;6.16;83.74
41624;BME280;27319;50.306;18.926;2023-04-08T08:29:20;98636.91;;;6.32;83.61
41624;BME280;27319;50.306;18.926;2023-04-08T08:33:21;98635.59;;;6.47;82.76
41624;BME280;27319;50.306;18.926;2023-04-08T08:37:22;98635.22;;;6.61;82.82
41624;BME280;27319;50.306;18.926;2023-04-08T08:41:22;98635.66;;;6.66;80.53
41624;BME280;27319;50.306;18.926;2023-04-08T08:45:23;98646.31;;;6.56;81.95
41624;BME280;27319;50.306;18.926;2023-04-08T08:49:24;98649.72;;;6.38;81.76
41624;BME280;27319;50.306;18.926;2023-04-08T08:53:28;98647.78;;;6.40;81.91
41624;BME280;27319;50.306;18.926;2023-04-08T08:57:26;98647.00;;;6.58;82.99
41624;BME280;27319;50.306;18.926;2023-04-08T09:01:29;98656.50;;;6.81;82.12
41624;BME280;27319;50.306;18.926;2023-04-08T09:05:29;98664.91;;;6.47;81.83
41624;BME280;27319;50.306;18.926;2023-04-08T09:09:46;98671.47;;;6.43;83.12
41624;BME280;27319;50.306;18.926;2023-04-08T09:13:33;98677.84;;;7.11;81.58
41624;BME280;27319;50.306;18.926;2023-04-08T09:17:32;98681.19;;;7.62;79.97
41624;BME280;27319;50.306;18.926;2023-04-08T09:21:32;98691.13;;;7.79;78.48
41624;BME280;27319;50.306;18.926;2023-04-08T09:25:42;98685.22;;;7.66;78.39
41624;BME280;27319;50.306;18.926;2023-04-08T09:29:43;98695.41;;;7.91;79.58
41624;BME280;27319;50.306;18.926;2023-04-08T09:33:51;98690.59;;;8.04;77.63
41624;BME280;27319;50.306;18.926;2023-04-08T09:37:51;98690.84;;;8.11;77.08
41624;BME280;27319;50.306;18.926;2023-04-08T09:41:52;98697.91;;;8.31;76.79
41624;BME280;27319;50.306;18.926;2023-04-08T09:45:53;98689.44;;;8.45;74.95
41624;BME280;27319;50.306;18.926;2023-04-08T09:49:57;98693.94;;;8.54;74.43
41624;BME280;27319;50.306;18.926;2023-04-08T09:54:01;98700.03;;;8.83;75.67
41624;BME280;27319;50.306;18.926;2023-04-08T09:58:27;98687.72;;;8.53;74.63
41624;BME280;27319;50.306;18.926;2023-04-08T10:02:06;98687.16;;;8.59;72.77
41624;BME280;27319;50.306;18.926;2023-04-08T10:06:05;98689.13;;;8.57;75.08
41624;BME280;27319;50.306;18.926;2023-04-08T10:10:06;98689.84;;;8.96;73.25
41624;BME280;27319;50.306;18.926;2023-04-08T10:14:08;98701.47;;;9.41;73.63
41624;BME280;27319;50.306;18.926;2023-04-08T10:21:54;98703.81;;;9.26;69.25
41624;BME280;27319;50.306;18.926;2023-04-08T10:32:59;98697.84;;;9.05;70.23
41624;BME280;27319;50.306;18.926;2023-04-08T10:36:39;98705.00;;;9.14;71.37
41624;BME280;27319;50.306;18.926;2023-04-08T10:39:48;98700.31;;;9.16;72.94
41624;BME280;27319;50.306;18.926;2023-04-08T10:42:55;98708.47;;;9.24;70.99
41624;BME280;27319;50.306;18.926;2023-04-08T10:45:56;98709.91;;;9.46;71.72
41624;BME280;27319;50.306;18.926;2023-04-08T10:49:00;98707.13;;;9.82;71.84
41624;BME280;27319;50.306;18.926;2023-04-08T10:52:05;98713.75;;;10.05;71.08
41624;BME280;27319;50.306;18.926;2023-04-08T10:55:07;98705.00;;;10.21;69.21
41624;BME280;27319;50.306;18.926;2023-04-08T10:58:09;98713.91;;;10.21;69.07
41624;BME280;27319;50.306;18.926;2023-04-08T11:01:11;98711.53;;;10.18;66.08
41624;BME280;27319;50.306;18.926;2023-04-08T11:04:16;98715.41;;;10.41;69.30
41624;BME280;27319;50.306;18.926;2023-04-08T11:07:24;98710.31;;;10.56;66.36
41624;BME280;27319;50.306;18.926;2023-04-08T11:10:26;98718.34;;;10.30;68.30
41624;BME280;27319;50.306;18.926;2023-04-08T11:13:29;98729.91;;;10.13;66.45
41624;BME280;27319;50.306;18.926;2023-04-08T11:16:30;98718.97;;;10.07;66.93
41624;BME280;27319;50.306;18.926;2023-04-08T11:19:34;98714.25;;;9.74;68.62
41624;BME280;27319;50.306;18.926;2023-04-08T11:22:35;98712.25;;;9.76;67.79
41624;BME280;27319;50.306;18.926;2023-04-08T11:25:40;98724.97;;;9.91;68.70
41624;BME280;27319;50.306;18.926;2023-04-08T11:28:42;98722.59;;;9.88;68.30
41624;BME280;27319;50.306;18.926;2023-04-08T11:31:43;98708.75;;;9.75;67.05
41624;BME280;27319;50.306;18.926;2023-04-08T11:34:46;98715.69;;;9.68;68.39
41624;BME280;27319;50.306;18.926;2023-04-08T11:37:47;98717.06;;;9.55;68.24
41624;BME280;27319;50.306;18.926;2023-04-08T11:40:56;98715.81;;;9.49;67.33
41624;BME280;27319;50.306;18.926;2023-04-08T11:43:58;98719.28;;;9.32;67.43
41624;BME280;27319;50.306;18.926;2023-04-08T11:46:59;98719.91;;;9.17;67.26
41624;BME280;27319;50.306;18.926;2023-04-08T11:50:02;98715.91;;;9.30;66.49
41624;BME280;27319;50.306;18.926;2023-04-08T11:53:02;98717.34;;;9.25;67.77
41624;BME280;27319;50.306;18.926;2023-04-08T11:56:19;98715.00;;;9.39;68.07
41624;BME280;27319;50.306;18.926;2023-04-08T11:59:21;98717.34;;;9.52;69.30
41624;BME280;27319;50.306;18.926;2023-04-08T12:02:23;98708.09;;;9.46;68.77
41624;BME280;27319;50.306;18.926;2023-04-08T12:05:23;98713.78;;;9.61;70.39
41624;BME280;27319;50.306;18.926;2023-04-08T12:08:25;98717.59;;;9.58;69.36
41624;BME280;27319;50.306;18.926;2023-04-08T12:11:26;98716.53;;;9.69;70.30
41624;BME280;27319;50.306;18.926;2023-04-08T12:14:27;98711.44;;;9.48;69.29
41624;BME280;27319;50.306;18.926;2023-04-08T12:17:28;98715.94;;;9.48;69.34
41624;BME280;27319;50.306;18.926;2023-04-08T12:20:29;98712.03;;;9.15;69.85
41624;BME280;27319;50.306;18.926;2023-04-08T12:23:29;98715.69;;;9.14;70.57
41624;BME280;27319;50.306;18.926;2023-04-08T12:26:31;98717.75;;;8.93;71.29
41624;BME280;27319;50.306;18.926;2023-04-08T12:29:32;98711.84;;;8.90;71.54
41624;BME280;27319;50.306;18.926;2023-04-08T12:32:33;98712.94;;;9.06;73.44
41624;BME280;27319;50.306;18.926;2023-04-08T12:35:34;98704.91;;;8.97;71.82
41624;BME280;27319;50.306;18.926;2023-04-08T12:38:35;98713.31;;;9.11;72.15
41624;BME280;27319;50.306;18.926;2023-04-08T12:41:36;98709.84;;;9.01;73.39
41624;BME280;27319;50.306;18.926;2023-04-08T12:44:37;98713.66;;;8.99;73.06
41624;BME280;27319;50.306;18.926;2023-04-08T12:47:38;98709.13;;;8.99;73.53
41624;BME280;27319;50.306;18.926;2023-04-08T12:50:40;98715.47;;;8.98;73.20
41624;BME280;27319;50.306;18.926;2023-04-08T12:53:40;98720.75;;;8.90;74.08
41624;BME280;27319;50.306;18.926;2023-04-08T12:56:42;98714.47;;;8.72;75.07
41624;BME280;27319;50.306;18.926;2023-04-08T12:59:43;98717.91;;;8.82;74.04
41624;BME280;27319;50.306;18.926;2023-04-08T13:03:04;98718.91;;;8.81;74.97
41624;BME280;27319;50.306;18.926;2023-04-08T13:07:05;98726.56;;;8.67;75.16
41624;BME280;27319;50.306;18.926;2023-04-08T13:11:06;98734.66;;;8.38;75.78
41624;BME280;27319;50.306;18.926;2023-04-08T13:15:06;98724.06;;;8.46;76.50
41624;BME280;27319;50.306;18.926;2023-04-08T13:19:07;98719.03;;;8.43;76.65
41624;BME280;27319;50.306;18.926;2023-04-08T13:23:08;98718.84;;;8.45;77.37
41624;BME280;27319;50.306;18.926;2023-04-08T13:26:49;98720.41;;;8.47;77.74
41624;BME280;27319;50.306;18.926;2023-04-08T13:29:51;98717.75;;;8.28;78.70
41624;BME280;27319;50.306;18.926;2023-04-08T13:32:52;98730.84;;;8.41;78.42
41624;BME280;27319;50.306;18.926;2023-04-08T13:35:52;98726.78;;;8.27;78.63
41624;BME280;27319;50.306;18.926;2023-04-08T13:38:54;98726.34;;;8.03;80.22
41624;BME280;27319;50.306;18.926;2023-04-08T13:41:54;98724.63;;;8.02;79.76
41624;BME280;27319;50.306;18.926;2023-04-08T13:44:56;98729.97;;;7.83;81.25
41624;BME280;27319;50.306;18.926;2023-04-08T13:47:57;98726.44;;;7.73;82.22
41624;BME280;27319;50.306;18.926;2023-04-08T13:50:59;98723.38;;;7.78;82.38
41624;BME280;27319;50.306;18.926;2023-04-08T13:54:00;98724.34;;;7.77;83.22
41624;BME280;27319;50.306;18.926;2023-04-08T13:57:01;98723.38;;;7.97;82.49
41624;BME280;27319;50.306;18.926;2023-04-08T14:00:02;98727.16;;;7.75;82.47
41624;BME280;27319;50.306;18.926;2023-04-08T14:03:03;98718.28;;;7.84;82.91
41624;BME280;27319;50.306;18.926;2023-04-08T14:06:04;98719.59;;;7.90;83.17
41624;BME280;27319;50.306;18.926;2023-04-08T14:09:05;98718.47;;;7.83;83.16
41624;BME280;27319;50.306;18.926;2023-04-08T14:12:06;98724.63;;;8.02;82.96
41624;BME280;27319;50.306;18.926;2023-04-08T14:15:08;98729.28;;;8.00;82.47
41624;BME280;27319;50.306;18.926;2023-04-08T14:18:08;98719.59;;;7.90;83.08
41624;BME280;27319;50.306;18.926;2023-04-08T14:21:10;98718.72;;;7.80;83.97
41624;BME280;27319;50.306;18.926;2023-04-08T14:24:12;98717.47;;;7.84;83.30
41624;BME280;27319;50.306;18.926;2023-04-08T14:27:13;98709.16;;;7.87;83.66
41624;BME280;27319;50.306;18.926;2023-04-08T14:30:14;98715.34;;;7.87;83.41
41624;BME280;27319;50.306;18.926;2023-04-08T14:33:15;98712.94;;;7.84;83.88
41624;BME280;27319;50.306;18.926;2023-04-08T14:36:15;98720.56;;;7.89;83.93
41624;BME280;27319;50.306;18.926;2023-04-08T14:39:17;98717.34;;;7.95;83.79
41624;BME280;27319;50.306;18.926;2023-04-08T14:42:37;98713.38;;;7.89;83.68
41624;BME280;27319;50.306;18.926;2023-04-08T14:46:38;98713.66;;;7.96;83.91
41624;BME280;27319;50.306;18.926;2023-04-08T14:50:39;98715.09;;;8.00;84.13
41624;BME280;27319;50.306;18.926;2023-04-08T14:54:40;98713.97;;;8.12;82.95
41624;BME280;27319;50.306;18.926;2023-04-08T14:58:41;98717.66;;;8.20;83.90
41624;BME280;27319;50.306;18.926;2023-04-08T15:02:41;98713.41;;;8.27;82.80
41624;BME280;27319;50.306;18.926;2023-04-08T15:06:42;98715.50;;;8.33;83.04
41624;BME280;27319;50.306;18.926;2023-04-08T15:10:43;98712.25;;;8.49;82.70
41624;BME280;27319;50.306;18.926;2023-04-08T15:14:43;98722.25;;;8.28;83.23
41624;BME280;27319;50.306;18.926;2023-04-08T15:18:44;98722.69;;;8.33;82.65
41624;BME280;27319;50.306;18.926;2023-04-08T15:22:45;98713.09;;;8.11;83.34
41624;BME280;27319;50.306;18.926;2023-04-08T15:26:46;98714.09;;;8.10;84.11
41624;BME280;27319;50.306;18.926;2023-04-08T15:30:47;98726.03;;;8.16;83.54
41624;BME280;27319;50.306;18.926;2023-04-08T15:34:48;98726.91;;;8.07;84.74
41624;BME280;27319;50.306;18.926;2023-04-08T15:38:48;98717.34;;;8.04;84.21
41624;BME280;27319;50.306;18.926;2023-04-08T15:42:51;98728.28;;;8.11;84.03
41624;BME280;27319;50.306;18.926;2023-04-08T15:46:52;98726.34;;;8.03;84.43
41624;BME280;27319;50.306;18.926;2023-04-08T15:50:53;98730.81;;;8.03;84.23
41624;BME280;27319;50.306;18.926;2023-04-08T15:54:54;98724.78;;;7.91;85.19
41624;BME280;27319;50.306;18.926;2023-04-08T15:58:55;98731.25;;;7.98;84.22
41624;BME280;27319;50.306;18.926;2023-04-08T16:02:56;98729.41;;;7.89;84.70
41624;BME280;27319;50.306;18.926;2023-04-08T16:06:57;98726.59;;;7.91;85.86
41624;BME280;27319;50.306;18.926;2023-04-08T16:11:01;98724.22;;;7.97;85.22
41624;BME280;27319;50.306;18.926;2023-04-08T16:15:01;98731.41;;;7.97;85.50
41624;BME280;27319;50.306;18.926;2023-04-08T16:19:02;98727.31;;;7.93;85.60
41624;BME280;27319;50.306;18.926;2023-04-08T16:23:03;98736.44;;;7.90;85.83
41624;BME280;27319;50.306;18.926;2023-04-08T16:27:03;98741.53;;;7.93;85.36
41624;BME280;27319;50.306;18.926;2023-04-08T16:31:05;98743.22;;;7.94;86.41
41624;BME280;27319;50.306;18.926;2023-04-08T16:35:05;98736.72;;;7.87;85.95
41624;BME280;27319;50.306;18.926;2023-04-08T16:39:06;98741.22;;;7.87;85.19
41624;BME280;27319;50.306;18.926;2023-04-08T16:43:07;98741.50;;;7.84;85.02
41624;BME280;27319;50.306;18.926;2023-04-08T16:47:08;98747.69;;;7.84;85.35
41624;BME280;27319;50.306;18.926;2023-04-08T16:51:08;98745.00;;;7.84;85.24
41624;BME280;27319;50.306;18.926;2023-04-08T16:54:50;98747.25;;;7.79;85.49
41624;BME280;27319;50.306;18.926;2023-04-08T16:57:51;98756.00;;;7.81;85.62
41624;BME280;27319;50.306;18.926;2023-04-08T17:00:52;98752.19;;;7.74;85.75
41624;BME280;27319;50.306;18.926;2023-04-08T17:04:13;98760.47;;;7.71;85.80
41624;BME280;27319;50.306;18.926;2023-04-08T17:08:14;98759.34;;;7.64;86.26
41624;BME280;27319;50.306;18.926;2023-04-08T17:12:15;98761.72;;;7.67;86.50
41624;BME280;27319;50.306;18.926;2023-04-08T17:16:16;98775.38;;;7.64;86.41
41624;BME280;27319;50.306;18.926;2023-04-08T17:20:16;98771.00;;;7.63;85.64
41624;BME280;27319;50.306;18.926;2023-04-08T17:24:17;98778.03;;;7.64;85.71
41624;BME280;27319;50.306;18.926;2023-04-08T17:28:19;98783.38;;;7.64;85.45
41624;BME280;27319;50.306;18.926;2023-04-08T17:32:19;98787.59;;;7.57;86.53
41624;BME280;27319;50.306;18.926;2023-04-08T17:36:20;98785.59;;;7.50;86.86
41624;BME280;27319;50.306;18.926;2023-04-08T17:40:21;98789.50;;;7.46;86.76
41624;BME280;27319;50.306;18.926;2023-04-08T17:44:21;98788.97;;;7.52;86.73
41624;BME280;27319;50.306;18.926;2023-04-08T17:48:22;98793.03;;;7.46;87.20
41624;BME280;27319;50.306;18.926;2023-04-08T17:52:23;98793.16;;;7.45;87.35
41624;BME280;27319;50.306;18.926;2023-04-08T17:56:01;98800.16;;;7.36;87.54
41624;BME280;27319;50.306;18.926;2023-04-08T17:59:02;98799.63;;;7.42;87.46
41624;BME280;27319;50.306;18.926;2023-04-08T18:02:03;98811.81;;;7.35;88.14
41624;BME280;27319;50.306;18.926;2023-04-08T18:05:04;98810.13;;;7.34;88.05
41624;BME280;27319;50.306;18.926;2023-04-08T18:08:06;98806.91;;;7.31;88.20
41624;BME280;27319;50.306;18.926;2023-04-08T18:11:07;98811.94;;;7.34;88.18
41624;BME280;27319;50.306;18.926;2023-04-08T18:14:08;98815.28;;;7.26;89.24
41624;BME280;27319;50.306;18.926;2023-04-08T18:17:09;98818.81;;;7.27;88.70
41624;BME280;27319;50.306;18.926;2023-04-08T18:20:10;98815.44;;;7.25;89.53
41624;BME280;27319;50.306;18.926;2023-04-08T18:23:11;98808.78;;;7.19;89.30
41624;BME280;27319;50.306;18.926;2023-04-08T18:26:12;98814.84;;;7.21;89.38
41624;BME280;27319;50.306;18.926;2023-04-08T18:29:13;98820.03;;;7.23;89.65
41624;BME280;27319;50.306;18.926;2023-04-08T18:32:15;98816.09;;;7.17;90.11
41624;BME280;27319;50.306;18.926;2023-04-08T18:35:16;98835.38;;;7.21;89.10
41624;BME280;27319;50.306;18.926;2023-04-08T18:38:17;98836.59;;;7.17;89.68
41624;BME280;27319;50.306;18.926;2023-04-08T18:41:18;98825.78;;;7.18;89.93
41624;BME280;27319;50.306;18.926;2023-04-08T18:44:43;98838.09;;;7.10;89.54
41624;BME280;27319;50.306;18.926;2023-04-08T18:48:44;98837.69;;;7.14;89.43
41624;BME280;27319;50.306;18.926;2023-04-08T18:52:45;98839.66;;;7.12;89.96
41624;BME280;27319;50.306;18.926;2023-04-08T18:56:46;98837.69;;;7.14;89.46
41624;BME280;27319;50.306;18.926;2023-04-08T19:00:47;98840.19;;;7.06;90.13
41624;BME280;27319;50.306;18.926;2023-04-08T19:04:48;98834.00;;;7.06;90.03
41624;BME280;27319;50.306;18.926;2023-04-08T19:08:49;98839.63;;;7.03;90.79
41624;BME280;27319;50.306;18.926;2023-04-08T19:12:50;98837.66;;;7.05;90.98
41624;BME280;27319;50.306;18.926;2023-04-08T19:16:51;98843.41;;;7.00;92.00
41624;BME280;27319;50.306;18.926;2023-04-08T19:20:52;98843.47;;;6.89;91.94
41624;BME280;27319;50.306;18.926;2023-04-08T19:24:53;98852.63;;;6.96;91.17
41624;BME280;27319;50.306;18.926;2023-04-08T19:28:54;98846.59;;;6.94;91.83
41624;BME280;27319;50.306;18.926;2023-04-08T19:32:55;98848.53;;;6.92;91.29
41624;BME280;27319;50.306;18.926;2023-04-08T19:36:56;98848.28;;;6.95;90.55
41624;BME280;27319;50.306;18.926;2023-04-08T19:40:57;98841.78;;;6.88;91.96
41624;BME280;27319;50.306;18.926;2023-04-08T19:44:58;98844.91;;;6.93;90.85